createdAt,value
2018-02-06T00:00:57.781Z,82.87
2018-02-06T00:03:26.900Z,82.03
2018-02-06T00:05:59.538Z,82.40
2018-02-06T00:08:28.586Z,82.37
2018-02-06T00:10:57.633Z,81.99
2018-02-06T00:13:26.709Z,81.49
2018-02-06T00:18:37.538Z,82.04
2018-02-06T00:23:57.586Z,82.53
2018-02-06T00:26:26.683Z,82.65
2018-02-06T00:29:10.674Z,83.09
2018-02-06T00:31:39.730Z,83.88
2018-02-06T00:37:00.076Z,82.02
2018-02-06T00:39:29.251Z,82.63
2018-02-06T00:44:36.966Z,81.50
2018-02-06T00:47:06.118Z,81.89
2018-02-06T00:49:35.168Z,81.63
2018-02-06T00:52:04.267Z,82.34
2018-02-06T00:54:33.322Z,82.65
2018-02-06T00:57:02.392Z,82.64
2018-02-06T00:59:31.431Z,82.85
2018-02-06T01:02:00.577Z,82.41
2018-02-06T01:04:29.673Z,82.20
2018-02-06T01:06:58.865Z,82.68
2018-02-06T01:09:27.973Z,82.30
2018-02-06T01:12:02.951Z,82.46
2018-02-06T01:14:31.969Z,81.95
2018-02-06T01:17:01.021Z,82.30
2018-02-06T01:19:30.073Z,81.71
2018-02-06T01:21:59.172Z,81.11
2018-02-06T01:24:28.425Z,80.90
2018-02-06T01:26:57.492Z,81.28
2018-02-06T01:29:26.561Z,81.54
2018-02-06T01:31:55.870Z,81.41
2018-02-06T01:34:24.937Z,81.73
2018-02-06T01:36:53.995Z,81.48
2018-02-06T01:39:23.087Z,81.67
2018-02-06T01:41:52.205Z,81.60
2018-02-06T01:44:21.468Z,82.55
2018-02-06T01:46:50.961Z,83.57
2018-02-06T01:49:20.036Z,83.74
2018-02-06T01:51:49.094Z,83.51
2018-02-06T01:54:18.209Z,82.99
2018-02-06T01:56:47.234Z,83.32
2018-02-06T01:59:19.342Z,83.87
2018-02-06T02:01:48.732Z,83.16
2018-02-06T02:06:55.302Z,82.29
2018-02-06T02:09:29.422Z,82.17
2018-02-06T02:11:58.473Z,81.84
2018-02-06T02:17:25.781Z,82.80
2018-02-06T02:19:54.838Z,82.88
2018-02-06T02:25:04.554Z,83.56
2018-02-06T02:27:34.515Z,83.53
2018-02-06T02:30:40.933Z,82.88
2018-02-06T02:33:10.004Z,82.86
2018-02-06T02:35:41.371Z,83.82
2018-02-06T02:38:34.638Z,83.83
2018-02-06T04:42:30.407Z,84.96
2018-02-06T04:45:03.181Z,85.53
2018-02-06T04:47:32.217Z,86.26
2018-02-06T04:50:06.704Z,86.45
2018-02-06T04:52:35.758Z,86.29
2018-02-06T04:55:31.131Z,85.07
2018-02-06T04:58:31.145Z,84.20
2018-02-06T05:01:10.637Z,85.17
2018-02-06T05:03:39.692Z,85.75
2018-02-06T05:08:45.652Z,86.23
2018-02-06T05:13:56.882Z,86.35
2018-02-06T05:19:10.070Z,85.29
2018-02-06T05:21:43.677Z,85.55
2018-02-06T05:24:12.705Z,85.69
2018-02-06T05:26:53.726Z,85.05
2018-02-06T05:29:26.611Z,84.48
2018-02-06T05:31:55.680Z,84.86
2018-02-06T05:34:24.745Z,85.36
2018-02-06T05:39:49.757Z,84.87
2018-02-06T05:42:35.769Z,85.40
2018-02-06T05:45:04.834Z,84.36
2018-02-06T05:50:10.078Z,84.91
2018-02-06T05:52:52.202Z,84.81
2018-02-06T05:55:34.205Z,85.05
2018-02-06T05:58:03.297Z,85.25
2018-02-06T06:00:36.038Z,85.25
2018-02-06T06:03:05.088Z,85.49
2018-02-06T06:05:36.200Z,85.34
2018-02-06T06:08:05.248Z,85.05
2018-02-06T06:10:34.277Z,85.30
2018-02-06T06:13:03.346Z,85.53
2018-02-06T06:15:35.798Z,86.63
2018-02-06T06:18:04.851Z,86.70
2018-02-06T06:20:47.501Z,86.21
2018-02-06T06:23:16.552Z,85.74
2018-02-06T06:25:53.758Z,85.74
2018-02-06T06:28:23.741Z,86.05
2018-02-06T06:30:53.705Z,86.05
2018-02-06T06:33:22.749Z,86.03
2018-02-06T06:38:46.926Z,86.34
2018-02-06T06:41:15.973Z,85.79
2018-02-06T06:43:45.045Z,85.68
2018-02-06T06:46:14.213Z,85.71
2018-02-06T06:48:43.222Z,85.39
2018-02-06T06:51:12.284Z,84.47
2018-02-06T06:53:41.341Z,83.73
2018-02-06T06:56:10.399Z,84.10
2018-02-06T06:58:39.445Z,84.05
2018-02-06T07:03:43.708Z,84.39
2018-02-06T07:06:12.859Z,84.36
2018-02-06T07:08:47.077Z,84.31
2018-02-06T07:13:52.353Z,84.95
2018-02-06T07:16:21.433Z,85.50
2018-02-06T07:18:50.532Z,85.32
2018-02-06T07:21:19.623Z,85.28
2018-02-06T07:23:48.695Z,84.84
2018-02-06T07:26:17.753Z,84.40
2018-02-06T07:28:46.797Z,83.76
2018-02-06T07:31:15.844Z,82.95
2018-02-06T07:33:44.901Z,82.52
2018-02-06T07:36:13.954Z,81.85
2018-02-06T07:38:43.023Z,82.72
2018-02-06T07:41:12.072Z,82.95
2018-02-06T07:43:41.141Z,83.48
2018-02-06T07:46:10.200Z,82.96
2018-02-06T07:48:39.281Z,81.82
2018-02-06T07:51:16.173Z,80.47
2018-02-06T07:53:45.317Z,80.51
2018-02-06T07:56:14.387Z,81.84
2018-02-06T07:58:43.433Z,81.24
2018-02-06T08:01:12.504Z,81.50
2018-02-06T08:03:41.584Z,81.83
2018-02-06T08:06:10.629Z,82.42
2018-02-06T08:08:39.695Z,82.90
2018-02-06T08:11:08.749Z,82.21
2018-02-06T08:13:37.804Z,81.84
2018-02-06T08:16:06.846Z,81.17
2018-02-06T08:18:35.893Z,80.63
2018-02-06T08:21:04.953Z,81.06
2018-02-06T08:23:34.046Z,80.44
2018-02-06T08:26:03.205Z,80.87
2018-02-06T08:28:32.295Z,80.54
2018-02-06T08:31:01.317Z,79.65
2018-02-06T08:36:08.701Z,78.98
2018-02-06T08:38:38.667Z,79.04
2018-02-06T08:41:07.884Z,79.12
2018-02-06T08:43:37.496Z,79.36
2018-02-06T08:46:06.564Z,78.12
2018-02-06T08:48:35.625Z,76.11
2018-02-06T08:51:04.666Z,77.60
2018-02-06T08:53:33.720Z,78.55
2018-02-06T08:56:02.771Z,77.40
2018-02-06T08:58:31.822Z,77.92
2018-02-06T09:01:00.957Z,77.89
2018-02-06T09:03:30.067Z,76.58
2018-02-06T09:06:02.523Z,77.01
2018-02-06T09:08:31.657Z,72.16
2018-02-06T09:11:00.758Z,72.50
2018-02-06T09:13:29.803Z,73.24
2018-02-06T09:15:58.852Z,73.41
2018-02-06T09:18:27.910Z,75.02
2018-02-06T09:20:56.952Z,75.35
2018-02-06T09:23:26.030Z,75.63
2018-02-06T09:25:55.038Z,71.51
2018-02-06T09:30:59.129Z,65.60
2018-02-06T09:33:28.178Z,61.64
2018-02-06T09:35:57.235Z,61.17
2018-02-06T09:38:26.258Z,56.30
2018-02-06T09:43:30.483Z,49.60
2018-02-06T09:45:59.517Z,59.21
2018-02-06T09:48:28.592Z,52.17
2018-02-06T09:50:57.612Z,59.84
2018-02-06T09:53:27.559Z,56.32
2018-02-06T09:55:56.589Z,54.32
2018-02-06T09:58:26.267Z,59.50
2018-02-06T10:00:55.310Z,54.35
2018-02-06T10:05:59.637Z,47.70
2018-02-06T10:08:28.673Z,48.62
2018-02-06T10:10:57.708Z,50.63
2018-02-06T10:13:27.029Z,48.55
2018-02-06T10:15:56.428Z,54.35
2018-02-06T10:18:25.976Z,52.86
2018-02-06T10:20:56.025Z,51.52
2018-02-06T10:23:25.063Z,52.74
2018-02-06T10:25:54.112Z,43.89
2018-02-06T10:28:23.183Z,46.67
2018-02-06T10:33:27.901Z,43.76
2018-02-06T10:35:56.944Z,49.31
2018-02-06T10:38:25.991Z,45.84
2018-02-06T10:40:55.053Z,47.53
2018-02-06T10:43:24.095Z,48.67
2018-02-06T10:45:53.128Z,45.64
2018-02-06T10:48:22.298Z,42.45
2018-02-06T10:50:51.312Z,48.07
2018-02-06T10:55:55.596Z,43.01
2018-02-06T10:58:24.660Z,42.70
2018-02-06T11:00:53.717Z,42.82
2018-02-06T11:03:22.752Z,40.07
2018-02-06T11:05:51.855Z,42.94
2018-02-06T11:08:20.845Z,41.15
2018-02-06T11:13:25.136Z,46.54
2018-02-06T11:15:54.172Z,47.17
2018-02-06T11:18:23.232Z,44.37
2018-02-06T11:20:52.285Z,43.74
2018-02-06T11:25:57.658Z,40.98
2018-02-06T11:28:26.700Z,40.17
2018-02-06T11:30:55.741Z,44.20
2018-02-06T11:33:24.781Z,42.59
2018-02-06T11:35:53.826Z,39.92
2018-02-06T11:43:33.338Z,41.83
2018-02-06T11:46:02.397Z,40.71
2018-02-06T11:48:31.448Z,44.46
2018-02-06T11:51:00.504Z,44.17
2018-02-06T11:53:29.561Z,39.98
2018-02-06T11:55:58.602Z,40.33
2018-02-06T11:58:27.674Z,38.38
2018-02-06T12:00:56.712Z,40.86
2018-02-06T12:06:00.969Z,38.91
2018-02-06T12:08:30.036Z,38.71
2018-02-06T12:10:59.065Z,40.52
2018-02-06T12:13:28.125Z,39.21
2018-02-06T12:15:57.189Z,40.71
2018-02-06T12:18:26.230Z,39.27
2018-02-06T12:20:55.275Z,41.44
2018-02-06T12:23:24.418Z,39.81
2018-02-06T12:25:53.450Z,40.94
2018-02-06T12:28:22.498Z,40.85
2018-02-06T12:30:51.551Z,41.27
2018-02-06T12:33:20.612Z,40.92
2018-02-06T12:35:49.653Z,42.92
2018-02-06T12:38:18.713Z,41.22
2018-02-06T12:40:47.751Z,43.05
2018-02-06T12:43:16.805Z,42.41
2018-02-06T12:45:47.613Z,43.01
2018-02-06T12:50:52.933Z,39.19
2018-02-06T12:53:21.973Z,39.21
2018-02-06T12:55:51.018Z,39.31
2018-02-06T12:58:20.073Z,38.97
2018-02-06T13:00:49.165Z,39.61
2018-02-06T13:03:18.200Z,37.82
2018-02-06T13:05:52.560Z,36.68
2018-02-06T13:08:21.855Z,35.46
2018-02-06T13:10:50.904Z,33.66
2018-02-06T13:13:20.013Z,34.42
2018-02-06T13:15:49.048Z,33.99
2018-02-06T13:18:18.078Z,32.81
2018-02-06T13:20:47.120Z,33.90
2018-02-06T13:23:16.174Z,32.96
2018-02-06T13:25:45.213Z,30.90
2018-02-06T13:28:14.261Z,27.64
2018-02-06T13:30:43.341Z,29.88
2018-02-06T13:33:12.376Z,29.55
2018-02-06T13:35:41.501Z,29.96
2018-02-06T13:38:10.484Z,31.26
2018-02-06T13:40:39.532Z,32.55
2018-02-06T13:43:08.580Z,31.51
2018-02-06T13:45:37.616Z,31.71
2018-02-06T13:48:06.684Z,29.92
2018-02-06T13:50:35.733Z,32.39
2018-02-06T13:53:06.800Z,27.62
2018-02-06T13:55:35.808Z,32.66
2018-02-06T13:58:04.865Z,30.99
2018-02-06T14:00:33.897Z,28.88
2018-02-06T14:03:02.953Z,33.04
2018-02-06T14:05:38.245Z,32.74
2018-02-06T14:08:11.675Z,36.08
2018-02-06T14:10:40.688Z,37.63
2018-02-06T14:13:09.728Z,34.64
2018-02-06T14:15:38.859Z,33.75
2018-02-06T14:18:07.848Z,31.60
2018-02-06T14:20:36.902Z,32.17
2018-02-06T14:23:05.963Z,30.48
2018-02-06T14:25:35.129Z,31.08
2018-02-06T14:28:04.166Z,29.85
2018-02-06T14:30:35.202Z,30.03
2018-02-06T14:33:04.249Z,29.35
2018-02-06T14:35:33.327Z,31.09
2018-02-06T14:38:02.359Z,31.69
2018-02-06T14:43:06.720Z,30.19
2018-02-06T14:45:35.773Z,31.34
2018-02-06T14:48:04.808Z,37.29
2018-02-06T14:50:33.868Z,35.03
2018-02-06T14:53:02.939Z,36.73
2018-02-06T14:55:36.261Z,36.53
2018-02-06T14:58:09.518Z,35.46
2018-02-06T15:03:14.018Z,36.53
2018-02-06T15:05:49.099Z,38.51
2018-02-06T15:08:18.461Z,40.70
2018-02-06T15:10:47.454Z,43.40
2018-02-06T15:13:16.493Z,47.20
2018-02-06T15:15:45.533Z,47.03
2018-02-06T15:18:14.582Z,47.40
2018-02-06T15:23:18.975Z,47.21
2018-02-06T15:25:48.021Z,46.54
2018-02-06T15:28:17.093Z,46.58
2018-02-06T15:33:21.457Z,49.73
2018-02-06T15:35:50.529Z,50.77
2018-02-06T15:40:54.804Z,52.78
2018-02-06T15:43:23.849Z,53.67
2018-02-06T15:45:52.895Z,54.56
2018-02-06T15:48:21.932Z,57.78
2018-02-06T15:50:50.985Z,60.96
2018-02-06T15:53:20.031Z,58.85
2018-02-06T15:55:49.074Z,61.23
2018-02-06T16:03:28.535Z,62.87
2018-02-06T16:06:01.842Z,64.00
2018-02-06T16:08:31.044Z,62.25
2018-02-06T16:11:00.116Z,65.25
2018-02-06T16:13:29.142Z,70.00
2018-02-06T16:16:00.615Z,62.59
2018-02-06T16:18:29.653Z,68.62
2018-02-06T16:20:58.710Z,66.83
2018-02-06T16:23:27.774Z,66.16
2018-02-06T16:25:57.706Z,66.93
2018-02-06T16:28:26.775Z,67.10
2018-02-06T16:30:55.843Z,69.26
2018-02-06T16:33:24.884Z,70.70
2018-02-06T16:35:54.255Z,71.29
2018-02-06T16:38:23.341Z,70.74
2018-02-06T16:40:52.393Z,68.95
2018-02-06T16:46:02.661Z,65.77
2018-02-06T16:48:32.300Z,67.78
2018-02-06T16:51:01.335Z,69.45
2018-02-06T16:53:30.386Z,70.88
2018-02-06T16:55:59.417Z,68.48
2018-02-06T16:58:29.489Z,70.56
2018-02-06T17:00:58.530Z,70.86
2018-02-06T17:03:27.633Z,71.07
2018-02-06T17:05:56.700Z,71.24
2018-02-06T17:08:25.815Z,69.81
2018-02-06T17:10:54.898Z,68.06
2018-02-06T17:13:23.949Z,67.38
2018-02-06T17:15:53.001Z,69.17
2018-02-06T17:18:25.047Z,68.35
2018-02-06T17:20:54.098Z,69.90
2018-02-06T17:23:23.186Z,74.29
2018-02-06T17:25:52.280Z,79.10
2018-02-06T17:28:21.286Z,76.83
2018-02-06T17:30:50.338Z,75.77
2018-02-06T17:33:19.377Z,76.42
2018-02-06T17:35:48.437Z,74.74
2018-02-06T17:38:17.606Z,74.44
2018-02-06T17:40:46.676Z,75.70
2018-02-06T17:43:15.746Z,74.54
2018-02-06T17:45:44.794Z,75.75
2018-02-06T17:48:13.841Z,75.34
2018-02-06T17:50:42.881Z,75.51
2018-02-06T17:53:11.944Z,76.61
2018-02-06T17:55:41.015Z,74.14
2018-02-06T17:58:10.073Z,74.30
2018-02-06T18:00:39.146Z,75.46
2018-02-06T18:03:08.206Z,76.08
2018-02-06T18:05:37.264Z,76.18
2018-02-06T18:08:06.334Z,77.09
2018-02-06T18:10:35.393Z,77.51
2018-02-06T18:13:04.469Z,78.85
2018-02-06T18:15:33.526Z,77.76
2018-02-06T18:18:02.586Z,77.25
2018-02-06T18:20:31.638Z,76.52
2018-02-06T18:23:00.693Z,79.79
2018-02-06T18:25:29.761Z,79.43
2018-02-06T18:27:58.843Z,76.96
2018-02-06T18:30:27.917Z,75.70
2018-02-06T18:32:56.962Z,78.39
2018-02-06T18:35:26.026Z,78.92
2018-02-06T18:37:55.127Z,78.59
2018-02-06T18:40:24.157Z,78.47
2018-02-06T18:42:54.096Z,79.10
2018-02-06T18:45:23.121Z,77.53
2018-02-06T18:47:52.182Z,78.71
2018-02-06T18:50:21.237Z,79.31
2018-02-06T18:52:50.291Z,78.08
2018-02-06T18:55:19.345Z,81.06
2018-02-06T18:57:48.422Z,79.41
2018-02-06T19:00:17.480Z,79.72
2018-02-06T19:02:46.539Z,80.25
2018-02-06T19:05:18.239Z,80.47
2018-02-06T19:07:47.708Z,79.50
2018-02-06T19:10:16.801Z,80.67
2018-02-06T19:12:45.929Z,80.57
2018-02-06T19:15:14.984Z,80.74
2018-02-06T19:17:44.669Z,80.12
2018-02-06T19:20:13.824Z,79.38
2018-02-06T19:22:44.503Z,78.75
2018-02-06T19:25:15.304Z,78.37
2018-02-06T19:30:21.193Z,78.32
2018-02-06T19:32:50.259Z,79.44
2018-02-06T19:35:19.317Z,78.24
2018-02-06T19:37:49.352Z,79.62
2018-02-06T19:40:18.420Z,79.78
2018-02-06T19:42:47.466Z,77.88
2018-02-06T19:45:16.530Z,80.90
2018-02-06T19:47:45.599Z,77.95
2018-02-06T19:50:14.755Z,81.57
2018-02-06T19:55:20.025Z,80.06
2018-02-06T19:57:49.075Z,79.41
2018-02-06T20:00:18.209Z,79.65
2018-02-06T20:02:47.361Z,78.23
2018-02-06T20:07:52.901Z,78.00
2018-02-06T20:10:22.930Z,79.95
2018-02-06T20:12:51.966Z,81.09
2018-02-06T20:15:21.178Z,79.31
2018-02-06T20:17:52.112Z,78.76
2018-02-06T20:20:21.218Z,80.00
2018-02-06T20:22:51.978Z,81.06
2018-02-06T20:25:21.222Z,80.78
2018-02-06T20:27:52.166Z,82.81
2018-02-06T20:30:24.757Z,82.25
2018-02-06T20:32:53.840Z,82.53
2018-02-06T20:35:22.920Z,83.33
2018-02-06T20:37:52.264Z,82.48
2018-02-06T20:40:21.386Z,82.47
2018-02-06T20:42:50.502Z,83.39
2018-02-06T20:45:20.119Z,83.36
2018-02-06T20:47:49.285Z,82.98
2018-02-06T20:50:18.342Z,82.25
2018-02-06T20:52:47.404Z,82.52
2018-02-06T20:55:17.136Z,83.55
2018-02-06T20:57:46.175Z,83.54
2018-02-06T21:00:15.337Z,82.57
2018-02-06T21:02:44.394Z,83.08
2018-02-06T21:05:13.548Z,84.45
2018-02-06T21:07:42.611Z,82.52
2018-02-06T21:10:12.669Z,83.23
2018-02-06T21:12:42.550Z,81.75
2018-02-06T21:15:11.822Z,82.23
2018-02-06T21:17:41.830Z,83.22
2018-02-06T21:20:13.183Z,82.61
2018-02-06T21:22:42.235Z,82.90
2018-02-06T21:25:11.368Z,82.02
2018-02-06T21:27:40.607Z,81.63
2018-02-06T21:30:58.019Z,81.90
2018-02-06T21:33:27.197Z,82.90
2018-02-06T21:35:56.363Z,82.74
2018-02-06T21:38:25.451Z,84.86
2018-02-06T21:40:55.128Z,83.53
2018-02-06T21:43:24.191Z,83.28
2018-02-06T21:45:53.249Z,82.38
2018-02-06T21:50:57.737Z,83.18
2018-02-06T21:53:26.844Z,84.11
2018-02-06T21:58:41.150Z,83.79
2018-02-06T22:01:16.968Z,81.70
2018-02-06T22:03:50.136Z,82.77
2018-02-06T22:06:19.485Z,83.42
2018-02-06T22:08:49.469Z,83.11
2018-02-06T22:11:18.681Z,83.91
2018-02-06T22:13:48.689Z,84.11
2018-02-06T22:16:17.731Z,83.10
2018-02-06T22:18:46.865Z,84.58
2018-02-06T22:21:20.994Z,83.08
2018-02-06T22:25:35.721Z,83.37
2018-02-06T22:28:04.797Z,84.21
2018-02-06T22:30:33.898Z,85.98
2018-02-06T22:33:02.986Z,84.40
2018-02-06T22:35:32.040Z,84.50
2018-02-06T22:38:01.370Z,85.30
2018-02-06T22:40:30.404Z,84.03
2018-02-06T22:42:59.494Z,84.68
2018-02-06T22:45:28.537Z,86.73
2018-02-06T22:47:57.614Z,86.54
2018-02-06T22:50:26.654Z,85.22
2018-02-06T22:52:55.697Z,86.47
2018-02-06T22:55:29.878Z,86.33
2018-02-06T22:57:59.665Z,85.71
2018-02-06T23:00:28.849Z,85.85
2018-02-06T23:02:58.990Z,86.77
2018-02-06T23:05:28.144Z,85.12
2018-02-06T23:07:58.266Z,84.18
2018-02-06T23:10:27.365Z,84.67
2018-02-06T23:12:56.442Z,85.20
2018-02-06T23:15:25.482Z,86.16
2018-02-06T23:17:54.649Z,86.03
2018-02-06T23:20:23.708Z,84.61
2018-02-06T23:22:52.851Z,83.94
2018-02-06T23:25:21.901Z,86.20
2018-02-06T23:27:51.938Z,86.87
2018-02-06T23:30:22.373Z,87.34
2018-02-06T23:32:53.209Z,87.60
2018-02-06T23:35:22.460Z,87.85
2018-02-06T23:37:53.998Z,85.72
2018-02-06T23:40:23.389Z,86.50
2018-02-06T23:42:53.357Z,85.85
2018-02-06T23:45:22.386Z,87.11
2018-02-06T23:47:51.460Z,86.28
2018-02-06T23:50:21.274Z,85.35
2018-02-06T23:52:53.062Z,84.26
2018-02-06T23:55:22.334Z,83.80
2018-02-06T23:57:51.401Z,84.37
